Time;durP1;ratioP1;P1;durP2;ratioP2;P2;SDS_P1;SDS_P2;PMS_P1;PMS_P2;Temp;Humidity;BMP_temperature;BMP_pressure;BME280_temperature;BME280_humidity;BME280_pressure;Samples;Min_cycle;Max_cycle;Signal;HPM_P1;HPM_P2
2023/02/26 05:00:30;;;;;;;0.63;0.63;;;-0.70;99.90;;;;;;5964661;23;20191;31
2023/02/26 05:02:57;;;;;;;0.70;0.70;;;-0.70;99.90;;;;;;4874661;29;20216;-67
2023/02/26 05:05:24;;;;;;;0.10;0.10;;;-0.70;99.90;;;;;;4878757;29;20219;-67
2023/02/26 05:07:54;;;;;;;1.42;1.40;;;-0.70;99.90;;;;;;4878942;29;20605;-67
2023/02/26 05:10:21;;;;;;;0.30;0.30;;;-0.70;99.90;;;;;;4877500;29;20280;-67
2023/02/26 05:12:48;;;;;;;1.05;1.05;;;-0.70;99.90;;;;;;4860392;29;20223;-67
2023/02/26 05:15:14;;;;;;;0.43;0.43;;;-0.70;99.90;;;;;;4855597;29;20559;-68
2023/02/26 05:17:42;;;;;;;1.17;0.63;;;-0.70;99.90;;;;;;4858718;29;20205;-68
2023/02/26 05:20:10;;;;;;;0.20;0.20;;;-0.70;99.90;;;;;;4859435;29;20635;-68
2023/02/26 05:22:37;;;;;;;0.38;0.38;;;-0.70;99.90;;;;;;4859281;29;20235;-68
2023/02/26 05:25:05;;;;;;;0.20;0.20;;;-0.70;99.90;;;;;;4859892;29;20264;-68
2023/02/26 05:27:32;;;;;;;0.30;0.30;;;-0.70;99.90;;;;;;4859687;29;20236;-69
2023/02/26 05:29:59;;;;;;;0.45;0.45;;;-0.70;99.90;;;;;;4858347;29;20224;-68
2023/02/26 05:32:26;;;;;;;0.77;0.77;;;-0.80;99.90;;;;;;4859457;29;20231;-68
2023/02/26 05:34:54;;;;;;;0.40;0.40;;;-0.80;99.90;;;;;;4860015;29;20216;-68
2023/02/26 05:37:21;;;;;;;0.55;0.55;;;-0.80;99.90;;;;;;4859698;29;20209;-68
2023/02/26 05:39:47;;;;;;;0.20;0.20;;;-0.80;99.90;;;;;;4859017;29;20223;-68
2023/02/26 05:42:14;;;;;;;1.02;1.02;;;-0.80;99.90;;;;;;4859623;29;20695;-68
2023/02/26 05:44:41;;;;;;;1.30;1.30;;;-0.80;99.90;;;;;;4855590;29;20685;-69
2023/02/26 05:47:08;;;;;;;0.20;0.20;;;-0.80;99.90;;;;;;4857312;29;20209;-68
2023/02/26 05:49:34;;;;;;;3.53;3.22;;;-0.90;99.90;;;;;;4856521;29;20220;-68
2023/02/26 05:52:03;;;;;;;4.35;1.60;;;-0.90;99.90;;;;;;4859170;29;20586;-68
2023/02/26 05:54:30;;;;;;;1.08;1.08;;;-0.90;99.90;;;;;;4859087;29;20245;-69
2023/02/26 05:56:56;;;;;;;0.20;0.20;;;-0.90;99.90;;;;;;4859047;29;20212;-68
2023/02/26 05:59:23;;;;;;;0.30;0.30;;;-0.90;99.90;;;;;;4859907;29;20223;-69
2023/02/26 06:01:50;;;;;;;0.20;0.20;;;-0.90;99.90;;;;;;4858639;29;20248;-68
2023/02/26 06:04:17;;;;;;;0.40;0.40;;;-0.90;99.90;;;;;;4860157;29;20288;-68
2023/02/26 06:06:44;;;;;;;0.43;0.43;;;-0.90;99.90;;;;;;4859759;29;20216;-68
2023/02/26 06:09:12;;;;;;;3.85;3.70;;;-0.90;99.90;;;;;;4861053;29;20237;-68
2023/02/26 06:11:39;;;;;;;0.38;0.38;;;-0.90;99.90;;;;;;4860622;29;20248;-69
2023/02/26 06:14:06;;;;;;;0.50;0.50;;;-1.00;99.90;;;;;;4859921;29;20307;-68
2023/02/26 06:16:34;;;;;;;0.40;0.40;;;-1.00;99.90;;;;;;4859352;29;20749;-68
2023/02/26 06:19:01;;;;;;;1.65;1.40;;;-1.00;99.90;;;;;;4861104;29;20216;-68
2023/02/26 06:21:28;;;;;;;0.20;0.20;;;-1.00;99.90;;;;;;4862516;29;20670;-68
2023/02/26 06:23:54;;;;;;;0.10;0.10;;;-1.00;99.90;;;;;;4863448;29;20213;-67
2023/02/26 06:26:22;;;;;;;4.32;1.30;;;-1.00;99.90;;;;;;4858332;29;20212;-68
2023/02/26 06:28:49;;;;;;;0.30;0.30;;;-1.00;99.90;;;;;;4857001;29;20701;-69
2023/02/26 06:31:16;;;;;;;0.17;0.17;;;-1.00;99.90;;;;;;4858527;29;20297;-68
2023/02/26 06:33:43;;;;;;;0.60;0.60;;;-1.00;99.90;;;;;;4859027;29;20212;-68
2023/02/26 06:36:09;;;;;;;0.20;0.20;;;-0.90;99.90;;;;;;4858654;29;20302;-68
2023/02/26 06:38:36;;;;;;;0.98;0.65;;;-1.00;99.90;;;;;;4859659;29;20220;-68
2023/02/26 06:41:03;;;;;;;1.55;1.48;;;-0.90;99.90;;;;;;4858278;29;20247;-68
2023/02/26 06:43:31;;;;;;;0.43;0.43;;;-0.90;99.90;;;;;;4859483;29;20642;-68
2023/02/26 06:45:59;;;;;;;0.40;0.40;;;-0.90;99.90;;;;;;4858612;29;20216;-68
2023/02/26 06:48:26;;;;;;;0.50;0.50;;;-0.90;99.90;;;;;;4858023;29;20263;-67
2023/02/26 06:50:53;;;;;;;0.50;0.50;;;-0.90;99.90;;;;;;4851468;29;20241;-68
2023/02/26 06:53:21;;;;;;;0.30;0.30;;;-0.90;99.90;;;;;;4858386;29;20223;-68
2023/02/26 06:55:51;;;;;;;0.63;0.63;;;-0.90;99.90;;;;;;4859297;29;20212;-68
2023/02/26 06:58:18;;;;;;;0.20;0.20;;;-0.80;99.90;;;;;;4860055;29;20758;-69
2023/02/26 07:00:46;;;;;;;0.20;0.20;;;-0.80;99.90;;;;;;4857799;29;20240;-69
2023/02/26 07:03:15;;;;;;;0.10;0.10;;;-0.80;99.90;;;;;;4858613;29;20654;-68
2023/02/26 07:05:41;;;;;;;1.17;1.17;;;-0.70;99.90;;;;;;4856962;29;20204;-69
2023/02/26 07:08:09;;;;;;;1.05;1.05;;;-0.70;99.90;;;;;;4857261;29;20326;-68
2023/02/26 07:10:36;;;;;;;0.40;0.40;;;-0.70;99.90;;;;;;4858883;29;20247;-68
2023/02/26 07:13:03;;;;;;;0.30;0.30;;;-0.60;99.90;;;;;;4858021;29;20228;-68
2023/02/26 07:15:31;;;;;;;0.73;0.73;;;-0.60;99.90;;;;;;4857587;29;20219;-68
2023/02/26 07:17:59;;;;;;;0.30;0.30;;;-0.40;99.90;;;;;;4859219;29;20208;-68
2023/02/26 07:20:27;;;;;;;0.40;0.40;;;-0.30;99.90;;;;;;4857800;29;20509;-68
2023/02/26 07:22:54;;;;;;;0.60;0.60;;;-0.30;99.90;;;;;;4859937;29;20223;-69
2023/02/26 07:25:20;;;;;;;0.20;0.20;;;-0.20;99.90;;;;;;4858176;29;20215;-69
2023/02/26 07:27:47;;;;;;;0.35;0.35;;;-0.30;99.90;;;;;;4855843;29;20211;-69
2023/02/26 07:30:14;;;;;;;0.10;0.10;;;-0.20;99.90;;;;;;4858428;29;20213;-69
2023/02/26 07:32:41;;;;;;;0.20;0.20;;;-0.20;99.90;;;;;;4857963;29;20594;-68
2023/02/26 07:35:10;;;;;;;4.95;1.75;;;-0.20;99.90;;;;;;4856091;29;20216;-69
2023/02/26 07:37:37;;;;;;;0.50;0.50;;;-0.10;99.90;;;;;;4858049;29;20220;-70
2023/02/26 07:40:05;;;;;;;0.38;0.38;;;-0.10;99.90;;;;;;4858380;29;20209;-69
2023/02/26 07:42:32;;;;;;;0.32;0.32;;;-0.10;99.90;;;;;;4857609;29;20232;-68
2023/02/26 07:44:59;;;;;;;0.10;0.10;;;0.00;99.90;;;;;;4857247;29;20212;-68
2023/02/26 07:47:26;;;;;;;0.70;0.70;;;0.00;99.90;;;;;;4858937;29;20217;-69
2023/02/26 07:49:52;;;;;;;0.35;0.35;;;0.00;99.90;;;;;;4856993;29;20236;-69
2023/02/26 07:52:20;;;;;;;0.10;0.10;;;0.10;99.90;;;;;;4859179;29;20233;-68
2023/02/26 07:54:47;;;;;;;0.38;0.38;;;0.10;99.90;;;;;;4855875;29;20217;-68
2023/02/26 07:57:14;;;;;;;0.30;0.30;;;0.20;99.90;;;;;;4859156;29;20672;-68
2023/02/26 07:59:41;;;;;;;0.32;0.32;;;0.20;99.90;;;;;;4854571;29;20240;-69
2023/02/26 08:02:08;;;;;;;1.75;0.68;;;0.30;99.90;;;;;;4856254;29;20251;-68
2023/02/26 08:04:34;;;;;;;0.35;0.35;;;0.30;99.90;;;;;;4857317;29;20228;-69
2023/02/26 08:07:02;;;;;;;0.10;0.10;;;0.40;99.90;;;;;;4852422;29;20295;-70
2023/02/26 08:09:30;;;;;;;0.40;0.20;;;0.50;99.90;;;;;;4857263;29;20237;-69
2023/02/26 08:11:57;;;;;;;0.30;0.30;;;0.50;99.90;;;;;;4854650;29;20296;-69
2023/02/26 08:14:24;;;;;;;0.20;0.20;;;0.50;99.90;;;;;;4857092;29;20219;-69
2023/02/26 08:16:52;;;;;;;1.02;1.02;;;0.60;99.90;;;;;;4853726;29;20216;-69
2023/02/26 08:19:18;;;;;;;0.45;0.45;;;0.70;99.90;;;;;;4858012;29;20201;-68
2023/02/26 08:21:45;;;;;;;0.60;0.30;;;0.70;99.90;;;;;;4852499;29;20581;-69
2023/02/26 08:24:12;;;;;;;0.25;0.25;;;0.80;99.90;;;;;;4854845;29;20212;-68
2023/02/26 08:26:40;;;;;;;0.20;0.20;;;0.80;99.90;;;;;;4858199;29;20232;-69
2023/02/26 08:29:08;;;;;;;2.63;0.52;;;0.90;99.90;;;;;;4855720;29;20578;-69
2023/02/26 08:31:35;;;;;;;0.52;0.30;;;0.90;99.90;;;;;;4858219;29;20563;-69
2023/02/26 08:34:02;;;;;;;0.20;0.20;;;1.00;99.90;;;;;;4858851;29;20213;-68
2023/02/26 08:36:29;;;;;;;0.40;0.38;;;1.00;99.90;;;;;;4856128;29;20303;-70
2023/02/26 08:38:57;;;;;;;0.30;0.30;;;1.10;99.90;;;;;;4855720;29;20322;-69
2023/02/26 08:41:26;;;;;;;1.08;0.70;;;1.10;99.90;;;;;;4855711;29;20235;-70
2023/02/26 08:43:54;;;;;;;0.85;0.85;;;1.20;99.90;;;;;;4856349;29;20212;-69
2023/02/26 08:46:21;;;;;;;0.30;0.30;;;1.20;99.90;;;;;;4856603;29;20299;-69
2023/02/26 08:48:48;;;;;;;0.60;0.60;;;1.20;99.90;;;;;;4855451;29;20240;-70
2023/02/26 08:51:15;;;;;;;0.30;0.30;;;1.30;99.90;;;;;;4857809;29;20237;-69
2023/02/26 08:53:44;;;;;;;1.65;0.65;;;1.30;99.90;;;;;;4856065;29;20694;-69
2023/02/26 08:56:11;;;;;;;1.60;0.95;;;1.30;99.90;;;;;;4856621;29;20216;-69
2023/02/26 08:58:37;;;;;;;0.20;0.20;;;1.40;99.90;;;;;;4858800;29;20219;-70
2023/02/26 09:01:06;;;;;;;0.10;0.10;;;1.40;99.90;;;;;;4857150;29;20248;-70
2023/02/26 09:03:37;;;;;;;0.10;0.10;;;1.40;99.90;;;;;;4858208;29;20219;-70
2023/02/26 09:06:06;;;;;;;2.25;0.95;;;1.50;99.90;;;;;;4856166;29;20316;-68
2023/02/26 09:08:34;;;;;;;0.20;0.20;;;1.60;99.90;;;;;;4858092;29;20606;-71
2023/02/26 09:11:04;;;;;;;0.32;0.32;;;1.60;99.90;;;;;;4855690;29;20666;-70
2023/02/26 09:13:35;;;;;;;0.40;0.40;;;1.70;99.90;;;;;;4857916;29;20212;-70
2023/02/26 09:16:05;;;;;;;0.30;0.30;;;1.80;99.90;;;;;;4855754;29;20595;-67
2023/02/26 09:18:34;;;;;;;0.40;0.40;;;1.80;99.90;;;;;;4853337;29;20694;-70
2023/02/26 09:21:05;;;;;;;0.30;0.30;;;1.90;99.90;;;;;;4856365;29;20721;-70
2023/02/26 09:23:36;;;;;;;0.20;0.20;;;1.90;99.90;;;;;;4850412;29;20642;-70
2023/02/26 09:26:07;;;;;;;1.58;0.73;;;1.90;99.90;;;;;;4854852;29;20220;-70
2023/02/26 09:28:35;;;;;;;0.57;0.57;;;2.00;99.90;;;;;;4856435;29;20546;-69
2023/02/26 09:31:03;;;;;;;0.10;0.10;;;2.00;99.90;;;;;;4853738;29;20339;-69
2023/02/26 09:33:30;;;;;;;0.20;0.20;;;2.10;99.90;;;;;;4858610;29;20216;-68
2023/02/26 09:36:01;;;;;;;0.20;0.20;;;2.20;99.90;;;;;;4854733;29;20216;-69
2023/02/26 09:38:37;;;;;;;0.45;0.45;;;2.20;99.90;;;;;;4860472;29;20227;-69
2023/02/26 09:41:18;;;;;;;0.52;0.30;;;2.20;99.90;;;;;;4856132;29;20232;-71
2023/02/26 09:44:20;;;;;;;0.75;0.75;;;2.30;99.90;;;;;;4852674;29;20278;-70
2023/02/26 09:47:05;;;;;;;0.55;0.55;;;2.30;99.90;;;;;;4855479;29;20268;-70
2023/02/26 09:49:55;;;;;;;0.10;0.10;;;2.40;99.90;;;;;;4856903;29;20292;-69
2023/02/26 09:52:33;;;;;;;0.10;0.10;;;2.40;99.90;;;;;;4855383;29;20225;-70
2023/02/26 09:55:10;;;;;;;0.73;0.73;;;2.50;99.90;;;;;;4860552;29;20208;-70
2023/02/26 09:57:56;;;;;;;0.20;0.20;;;2.50;99.90;;;;;;4860175;29;20313;-70
2023/02/26 10:00:39;;;;;;;0.22;0.22;;;2.60;99.90;;;;;;4857922;29;20227;-70
2023/02/26 10:03:34;;;;;;;2.55;0.52;;;2.70;99.90;;;;;;4854443;29;20556;-71
2023/02/26 10:06:30;;;;;;;0.20;0.20;;;2.80;99.90;;;;;;4859399;29;20209;-69
2023/02/26 10:09:33;;;;;;;2.83;0.80;;;2.80;99.90;;;;;;4854281;29;20288;-68
2023/02/26 10:12:17;;;;;;;0.22;0.22;;;2.90;99.90;;;;;;4853811;29;20236;-70
2023/02/26 10:15:12;;;;;;;0.43;0.43;;;2.90;99.90;;;;;;4858840;29;20212;-69
2023/02/26 10:18:03;;;;;;;0.20;0.20;;;2.80;99.90;;;;;;4857966;29;20236;-70
2023/02/26 10:20:38;;;;;;;0.10;0.10;;;2.90;99.90;;;;;;4857015;29;20204;-70
2023/02/26 10:23:16;;;;;;;0.20;0.20;;;2.90;99.90;;;;;;4856742;29;20307;-69
2023/02/26 10:25:59;;;;;;;0.20;0.20;;;3.00;99.90;;;;;;4858155;29;20209;-69
2023/02/26 10:28:42;;;;;;;0.75;0.75;;;3.00;99.90;;;;;;4858772;29;20220;-70
2023/02/26 10:31:17;;;;;;;0.73;0.30;;;3.10;99.90;;;;;;4856144;29;20221;-70
2023/02/26 10:33:53;;;;;;;0.30;0.30;;;3.10;99.90;;;;;;4859339;29;20216;-71
2023/02/26 10:36:28;;;;;;;0.17;0.17;;;3.10;99.90;;;;;;4859725;29;20200;-71
2023/02/26 10:39:03;;;;;;;0.45;0.45;;;3.10;99.90;;;;;;4857089;29;20224;-70
2023/02/26 10:41:40;;;;;;;0.20;0.20;;;3.10;99.90;;;;;;4859096;29;20235;-69
2023/02/26 10:44:16;;;;;;;0.10;0.10;;;3.10;99.90;;;;;;4858260;29;20790;-69
2023/02/26 10:46:49;;;;;;;0.30;0.30;;;3.30;99.90;;;;;;4857983;29;20300;-70
2023/02/26 10:49:43;;;;;;;0.95;0.95;;;3.40;99.90;;;;;;4857372;29;20273;-69
2023/02/26 10:52:15;;;;;;;0.20;0.20;;;3.40;99.90;;;;;;4844094;29;20260;-71
2023/02/26 10:55:02;;;;;;;0.20;0.20;;;3.40;99.90;;;;;;4851176;29;20311;-69
2023/02/26 10:57:38;;;;;;;0.10;0.10;;;3.40;99.90;;;;;;4849439;29;20256;-68
2023/02/26 11:00:16;;;;;;;0.40;0.40;;;3.50;99.90;;;;;;4858988;29;20208;-69
2023/02/26 11:02:46;;;;;;;0.30;0.30;;;3.50;99.90;;;;;;4855094;29;20237;-69
2023/02/26 11:05:18;;;;;;;0.22;0.22;;;3.60;99.90;;;;;;4857656;29;20212;-70
2023/02/26 11:08:00;;;;;;;0.20;0.20;;;3.60;99.90;;;;;;4855573;29;20220;-71
2023/02/26 11:10:39;;;;;;;0.50;0.25;;;3.70;99.90;;;;;;4858491;29;20256;-70
2023/02/26 11:13:08;;;;;;;0.10;0.10;;;3.70;99.90;;;;;;4858215;29;20352;-69
2023/02/26 11:15:40;;;;;;;0.40;0.40;;;3.70;99.90;;;;;;4857333;29;20219;-70
2023/02/26 11:18:15;;;;;;;0.40;0.30;;;3.80;99.90;;;;;;4856495;29;20659;-70
2023/02/26 11:20:45;;;;;;;0.20;0.20;;;3.80;99.90;;;;;;4858919;29;20224;-69
2023/02/26 11:23:18;;;;;;;1.38;0.45;;;3.80;99.90;;;;;;4858454;29;20217;-69
2023/02/26 11:25:46;;;;;;;17.45;1.60;;;4.00;99.90;;;;;;4858736;29;20316;-69
2023/02/26 11:28:33;;;;;;;0.63;0.63;;;3.90;99.90;;;;;;4860272;29;20212;-69
2023/02/26 11:31:09;;;;;;;0.20;0.20;;;3.80;99.90;;;;;;4856705;29;20247;-70
2023/02/26 11:33:44;;;;;;;0.50;0.50;;;3.90;99.90;;;;;;4859507;29;20223;-69
2023/02/26 11:36:17;;;;;;;0.50;0.50;;;4.10;99.90;;;;;;4860275;29;20229;-69
2023/02/26 11:38:47;;;;;;;0.63;0.63;;;4.20;99.90;;;;;;4859881;29;20367;-70
2023/02/26 11:41:19;;;;;;;0.20;0.20;;;4.10;99.90;;;;;;4858661;29;20228;-70
2023/02/26 11:43:56;;;;;;;0.32;0.32;;;4.00;99.90;;;;;;4860494;29;20252;-69
2023/02/26 11:46:27;;;;;;;0.57;0.57;;;3.90;99.90;;;;;;4858135;29;20303;-69
2023/02/26 11:49:04;;;;;;;0.30;0.30;;;3.90;99.90;;;;;;4861269;29;20312;-69
2023/02/26 11:51:37;;;;;;;4.15;0.50;;;4.00;99.90;;;;;;4860856;29;20229;-70
2023/02/26 11:54:32;;;;;;;0.20;0.20;;;4.10;99.90;;;;;;4858913;29;20212;-71
2023/02/26 11:57:17;;;;;;;0.10;0.10;;;4.20;99.90;;;;;;4860033;29;20208;-71
2023/02/26 12:00:00;;;;;;;0.20;0.20;;;4.30;99.90;;;;;;4858198;29;20209;-68
2023/02/26 12:02:33;;;;;;;0.10;0.10;;;4.40;99.90;;;;;;4851262;29;20248;-71
2023/02/26 12:05:05;;;;;;;0.10;0.10;;;4.40;99.90;;;;;;4858119;29;20208;-69
2023/02/26 12:07:45;;;;;;;0.98;0.63;;;4.50;99.90;;;;;;4856548;29;20276;-70
2023/02/26 12:10:18;;;;;;;0.30;0.30;;;4.50;99.90;;;;;;4857147;29;20381;-69
2023/02/26 12:13:02;;;;;;;0.32;0.32;;;4.60;99.90;;;;;;4858625;29;20314;-70
2023/02/26 12:15:37;;;;;;;0.95;0.95;;;4.60;99.90;;;;;;4857358;29;20299;-70
2023/02/26 12:18:36;;;;;;;2.45;0.68;;;4.70;99.90;;;;;;4858258;29;20264;-70
2023/02/26 12:21:23;;;;;;;0.20;0.20;;;4.90;99.90;;;;;;4857225;29;20343;-70
2023/02/26 12:24:26;;;;;;;0.10;0.10;;;5.00;99.90;;;;;;4849866;29;20296;-70
2023/02/26 12:27:06;;;;;;;0.20;0.20;;;5.20;99.90;;;;;;4853132;29;20211;-71
2023/02/26 12:30:03;;;;;;;1.85;0.43;;;5.40;99.90;;;;;;4857799;29;20232;-70
2023/02/26 12:32:47;;;;;;;0.10;0.10;;;5.30;99.90;;;;;;4857919;29;20232;-70
2023/02/26 12:35:47;;;;;;;0.20;0.20;;;5.20;99.90;;;;;;4857925;29;20208;-69
2023/02/26 12:38:34;;;;;;;0.10;0.10;;;5.10;99.90;;;;;;4847568;29;20216;-68
2023/02/26 12:41:26;;;;;;;0.43;0.43;;;5.00;99.90;;;;;;4846087;29;20228;-69
2023/02/26 12:43:55;;;;;;;1.20;0.38;;;5.00;99.90;;;;;;4852492;29;20534;-69
2023/02/26 12:46:34;;;;;;;0.50;0.30;;;5.00;99.90;;;;;;4857509;29;20564;-68
2023/02/26 12:49:33;;;;;;;0.65;0.65;;;4.90;99.90;;;;;;4839483;29;20213;-70
2023/02/26 12:52:42;;;;;;;2.75;1.75;;;4.90;99.90;;;;;;4854039;29;20558;-70
2023/02/26 12:55:27;;;;;;;1.42;1.42;;;4.80;99.90;;;;;;4849817;29;20212;-70
2023/02/26 12:58:18;;;;;;;0.32;0.32;;;4.80;99.90;;;;;;4857144;29;20679;-70
2023/02/26 13:01:11;;;;;;;0.20;0.20;;;4.90;99.90;;;;;;4857319;29;20585;-69
2023/02/26 13:04:10;;;;;;;0.20;0.20;;;5.00;99.90;;;;;;4855924;29;20595;-71
2023/02/26 13:07:27;;;;;;;0.10;0.10;;;5.20;99.90;;;;;;4858454;29;20654;-67
2023/02/26 13:10:03;;;;;;;0.20;0.20;;;5.10;99.90;;;;;;4852654;29;20242;-70
2023/02/26 13:12:42;;;;;;;0.73;0.40;;;5.20;99.90;;;;;;4860775;29;20248;-70
2023/02/26 13:15:36;;;;;;;0.20;0.20;;;5.20;99.90;;;;;;4857049;29;20586;-68
2023/02/26 13:18:11;;;;;;;0.10;0.10;;;5.20;99.90;;;;;;4860531;29;20593;-70
2023/02/26 13:20:55;;;;;;;0.10;0.10;;;5.10;99.90;;;;;;4859802;29;20624;-67
2023/02/26 13:23:25;;;;;;;0.10;0.10;;;5.10;99.90;;;;;;4859678;29;20205;-70
2023/02/26 13:25:57;;;;;;;3.05;2.38;;;5.10;99.90;;;;;;4852122;29;20213;-68
2023/02/26 13:28:37;;;;;;;0.32;0.32;;;5.20;99.90;;;;;;4855956;29;20219;-68
2023/02/26 13:31:08;;;;;;;0.30;0.30;;;5.20;99.90;;;;;;4851052;29;20236;-67
2023/02/26 13:33:36;;;;;;;2.90;0.60;;;5.30;99.90;;;;;;4852298;29;20221;-70
2023/02/26 13:36:07;;;;;;;0.10;0.10;;;5.30;99.90;;;;;;4857758;29;20216;-67
2023/02/26 13:38:40;;;;;;;1.75;1.65;;;5.20;99.90;;;;;;4856642;29;20268;-68
2023/02/26 13:41:15;;;;;;;0.60;0.60;;;5.20;99.90;;;;;;4859989;29;20240;-68
2023/02/26 13:43:52;;;;;;;0.20;0.20;;;5.20;99.90;;;;;;4860870;29;20665;-68
2023/02/26 13:46:33;;;;;;;0.20;0.20;;;5.10;99.90;;;;;;4859111;29;20268;-69
2023/02/26 13:49:08;;;;;;;0.20;0.20;;;5.10;99.90;;;;;;4855272;29;20717;-67
2023/02/26 13:51:37;;;;;;;0.10;0.10;;;5.10;99.90;;;;;;4858885;29;20247;-68
2023/02/26 13:54:27;;;;;;;0.40;0.40;;;5.00;99.90;;;;;;4859142;29;20213;-66
2023/02/26 13:57:07;;;;;;;1.50;0.30;;;5.10;99.90;;;;;;4865565;29;20214;-68
2023/02/26 13:59:47;;;;;;;0.82;0.38;;;5.00;99.90;;;;;;4858698;29;20239;-67
2023/02/26 14:02:46;;;;;;;1.17;1.15;;;5.00;99.90;;;;;;4859991;29;20251;-67
2023/02/26 14:05:31;;;;;;;0.20;0.20;;;5.00;99.90;;;;;;4861710;29;20228;-67
2023/02/26 14:08:19;;;;;;;0.25;0.25;;;5.00;99.90;;;;;;4860493;29;20215;-67
2023/02/26 14:10:54;;;;;;;1.27;0.65;;;5.00;99.90;;;;;;4870006;29;20228;-66
2023/02/26 14:13:25;;;;;;;0.35;0.35;;;5.00;99.90;;;;;;4877543;29;20216;-67
2023/02/26 14:16:00;;;;;;;0.50;0.50;;;4.90;99.90;;;;;;4871081;29;20276;-67
2023/02/26 14:18:34;;;;;;;0.63;0.63;;;4.90;99.90;;;;;;4862786;29;20232;-70
2023/02/26 14:21:34;;;;;;;0.57;0.57;;;4.90;99.90;;;;;;4865967;29;20224;-68
2023/02/26 14:24:03;;;;;;;0.65;0.25;;;4.90;99.90;;;;;;4854885;29;20230;-67
2023/02/26 14:26:34;;;;;;;0.40;0.40;;;5.00;99.90;;;;;;4862866;29;20236;-68
2023/02/26 14:29:15;;;;;;;0.45;0.45;;;5.10;99.90;;;;;;4858233;29;20215;-67
2023/02/26 14:32:12;;;;;;;0.30;0.30;;;5.20;99.90;;;;;;4858984;29;20289;-68
2023/02/26 14:34:48;;;;;;;0.20;0.20;;;5.30;99.90;;;;;;4856844;29;20623;-68
2023/02/26 14:37:20;;;;;;;0.57;0.57;;;5.30;99.90;;;;;;4857676;29;20216;-66
2023/02/26 14:39:52;;;;;;;0.50;0.50;;;5.30;99.90;;;;;;4856498;29;20221;-67
2023/02/26 14:42:23;;;;;;;0.30;0.30;;;5.30;99.90;;;;;;4859235;29;20228;-67
2023/02/26 14:45:06;;;;;;;2.83;1.05;;;5.30;99.90;;;;;;4857571;29;20239;-68
2023/02/26 14:47:32;;;;;;;0.30;0.30;;;5.30;99.90;;;;;;4855660;29;20211;-68
2023/02/26 14:49:59;;;;;;;0.38;0.38;;;5.30;99.90;;;;;;4856217;29;20705;-67
2023/02/26 14:53:05;;;;;;;0.30;0.30;;;5.30;99.90;;;;;;4858150;29;20660;-68
2023/02/26 14:55:59;;;;;;;4.80;0.63;;;5.30;99.90;;;;;;4854052;29;20243;-68
2023/02/26 14:59:00;;;;;;;0.52;0.43;;;5.10;99.90;;;;;;4858286;29;20213;-69
2023/02/26 15:01:48;;;;;;;0.20;0.20;;;5.10;99.90;;;;;;4857517;29;20240;-68
2023/02/26 15:04:28;;;;;;;0.10;0.10;;;5.20;99.90;;;;;;4857180;29;20213;-69
2023/02/26 15:07:15;;;;;;;1.20;0.30;;;5.10;99.90;;;;;;4853596;29;20223;-68
2023/02/26 15:09:56;;;;;;;0.30;0.30;;;5.10;99.90;;;;;;4854861;29;20581;-68
2023/02/26 15:12:39;;;;;;;5.80;1.25;;;5.10;99.90;;;;;;4855506;29;20568;-68
2023/02/26 15:15:23;;;;;;;0.10;0.10;;;5.10;99.90;;;;;;4862780;29;20216;-67
2023/02/26 15:18:08;;;;;;;0.20;0.20;;;5.10;99.90;;;;;;4857013;29;20219;-68
2023/02/26 15:20:43;;;;;;;0.82;0.82;;;5.10;99.90;;;;;;4857613;29;22041;-67
2023/02/26 15:23:23;;;;;;;0.55;0.55;;;5.00;99.90;;;;;;4857256;29;20223;-68
2023/02/26 15:25:51;;;;;;;0.30;0.30;;;5.00;99.90;;;;;;4858214;29;20208;-68
2023/02/26 15:28:29;;;;;;;0.30;0.30;;;4.90;99.90;;;;;;4857095;29;20231;-69
2023/02/26 15:30:57;;;;;;;0.60;0.60;;;4.90;99.90;;;;;;4856842;29;20236;-69
2023/02/26 15:33:25;;;;;;;0.90;0.90;;;4.80;99.90;;;;;;4856325;29;20598;-67
2023/02/26 15:35:54;;;;;;;0.40;0.30;;;4.80;99.90;;;;;;4857662;29;20219;-68
2023/02/26 15:38:21;;;;;;;0.70;0.70;;;4.80;99.90;;;;;;4857282;29;20546;-69
2023/02/26 15:40:51;;;;;;;0.30;0.30;;;4.80;99.90;;;;;;4858503;29;20239;-66
2023/02/26 15:43:24;;;;;;;0.30;0.30;;;4.70;99.90;;;;;;4865289;29;20215;-67
2023/02/26 15:45:55;;;;;;;0.68;0.47;;;4.70;99.90;;;;;;4856818;29;20213;-66
2023/02/26 15:48:28;;;;;;;1.75;1.02;;;4.70;99.90;;;;;;4855973;29;20697;-67
2023/02/26 15:50:57;;;;;;;0.55;0.47;;;4.70;99.90;;;;;;4857587;29;20244;-67
2023/02/26 15:53:29;;;;;;;0.70;0.70;;;4.60;99.90;;;;;;4854874;29;20224;-67
2023/02/26 15:55:58;;;;;;;2.10;0.43;;;4.50;99.90;;;;;;4855733;29;20213;-67
2023/02/26 15:58:34;;;;;;;0.30;0.30;;;4.40;99.90;;;;;;4857486;29;20235;-67
2023/02/26 16:01:03;;;;;;;0.50;0.32;;;4.40;99.90;;;;;;4850707;29;20283;-68
2023/02/26 16:03:35;;;;;;;0.88;0.88;;;4.30;99.90;;;;;;4855392;29;20642;-68
2023/02/26 16:06:02;;;;;;;1.00;1.00;;;4.30;99.90;;;;;;4855883;29;20243;-68
2023/02/26 16:08:29;;;;;;;0.40;0.40;;;4.30;99.90;;;;;;4855021;29;20219;-68
2023/02/26 16:10:58;;;;;;;1.88;0.75;;;4.20;99.90;;;;;;4864180;29;20234;-68
2023/02/26 16:13:30;;;;;;;0.57;0.57;;;4.20;99.90;;;;;;4856489;29;20599;-67
2023/02/26 16:16:01;;;;;;;0.20;0.20;;;4.20;99.90;;;;;;4854823;29;20221;-71
2023/02/26 16:18:30;;;;;;;0.95;0.95;;;4.10;99.90;;;;;;4857066;29;20247;-69
2023/02/26 16:21:00;;;;;;;0.20;0.20;;;4.10;99.90;;;;;;4851364;29;20225;-67
2023/02/26 16:23:38;;;;;;;0.20;0.20;;;4.10;99.90;;;;;;4853219;29;20227;-68
2023/02/26 16:26:07;;;;;;;1.70;1.60;;;4.00;99.90;;;;;;4855773;29;20655;-67
2023/02/26 16:28:44;;;;;;;0.30;0.30;;;4.00;99.90;;;;;;4856367;29;20212;-67
2023/02/26 16:31:16;;;;;;;0.55;0.55;;;3.90;99.90;;;;;;4852959;29;20228;-68
2023/02/26 16:33:52;;;;;;;0.52;0.52;;;3.90;99.90;;;;;;4856731;29;20205;-67
2023/02/26 16:36:24;;;;;;;0.30;0.30;;;3.80;99.90;;;;;;4856687;29;20204;-68
2023/02/26 16:38:58;;;;;;;0.10;0.10;;;3.70;99.90;;;;;;4859234;29;20215;-68
2023/02/26 16:41:28;;;;;;;0.20;0.20;;;3.70;99.90;;;;;;4864417;29;20724;-68
2023/02/26 16:43:57;;;;;;;1.27;1.02;;;3.60;99.90;;;;;;4853652;29;20218;-67
2023/02/26 16:46:34;;;;;;;1.70;1.60;;;3.60;99.90;;;;;;4867667;29;20744;-69
2023/02/26 16:49:04;;;;;;;1.67;1.67;;;3.50;99.90;;;;;;4859823;29;20223;-69
2023/02/26 16:51:36;;;;;;;4.95;1.83;;;3.40;99.90;;;;;;4859635;29;20666;-70
2023/02/26 16:54:07;;;;;;;0.47;0.47;;;3.40;99.90;;;;;;4858517;29;20644;-70
2023/02/26 16:56:38;;;;;;;3.60;3.50;;;3.40;99.90;;;;;;4858970;29;20537;-69
2023/02/26 16:59:10;;;;;;;3.72;3.47;;;3.30;99.90;;;;;;4858655;29;20220;-68
2023/02/26 17:01:40;;;;;;;1.77;1.58;;;3.30;99.90;;;;;;4858590;29;20268;-69
2023/02/26 17:04:09;;;;;;;1.65;1.58;;;3.30;99.90;;;;;;4866362;29;20238;-68
2023/02/26 17:06:40;;;;;;;0.50;0.50;;;3.20;99.90;;;;;;4860030;29;20208;-68
2023/02/26 17:09:09;;;;;;;5.97;1.17;;;3.10;99.90;;;;;;4859374;29;20213;-70
2023/02/26 17:11:40;;;;;;;0.63;0.63;;;3.10;99.90;;;;;;4858025;29;20284;-67
2023/02/26 17:14:17;;;;;;;1.65;0.80;;;3.00;99.90;;;;;;4858929;29;20205;-68
2023/02/26 17:16:45;;;;;;;6.28;3.88;;;2.90;99.90;;;;;;4859658;29;20210;-67
2023/02/26 17:19:11;;;;;;;1.30;1.20;;;2.90;99.90;;;;;;4859956;29;20591;-70
2023/02/26 17:21:43;;;;;;;0.50;0.50;;;2.90;99.90;;;;;;4857526;29;20240;-67
2023/02/26 17:24:16;;;;;;;1.40;1.40;;;2.80;99.90;;;;;;4859483;29;20201;-70
2023/02/26 17:26:43;;;;;;;1.30;1.30;;;2.80;99.90;;;;;;4859189;29;20566;-68
2023/02/26 17:29:18;;;;;;;0.77;0.57;;;2.70;99.90;;;;;;4859420;29;20219;-68
2023/02/26 17:31:46;;;;;;;1.90;1.75;;;2.70;99.90;;;;;;4858403;29;20263;-68
2023/02/26 17:34:13;;;;;;;0.52;0.52;;;2.60;99.90;;;;;;4859170;29;20637;-68
2023/02/26 17:36:41;;;;;;;0.50;0.50;;;2.60;99.90;;;;;;4859430;29;20219;-68
2023/02/26 17:39:09;;;;;;;1.90;1.80;;;2.60;99.90;;;;;;4865281;29;20224;-68
2023/02/26 17:41:36;;;;;;;2.75;1.40;;;2.50;99.90;;;;;;4859279;29;20225;-68
2023/02/26 17:44:03;;;;;;;0.50;0.50;;;2.40;99.90;;;;;;4856497;29;20216;-68
2023/02/26 17:46:31;;;;;;;0.45;0.45;;;2.40;99.90;;;;;;4858160;29;20208;-68
2023/02/26 17:48:57;;;;;;;1.10;1.10;;;2.30;99.90;;;;;;4868624;29;20218;-67
2023/02/26 17:51:25;;;;;;;0.50;0.50;;;2.30;99.90;;;;;;4863165;29;20239;-68
2023/02/26 17:53:54;;;;;;;0.98;0.98;;;2.30;99.90;;;;;;4856036;29;20213;-69
2023/02/26 17:56:25;;;;;;;1.52;1.33;;;2.20;99.90;;;;;;4858332;29;20209;-69
2023/02/26 17:58:53;;;;;;;4.57;2.78;;;2.20;99.90;;;;;;4859721;29;20311;-67
2023/02/26 18:01:22;;;;;;;1.08;0.98;;;2.20;99.90;;;;;;4857911;29;22028;-67
2023/02/26 18:03:49;;;;;;;2.85;2.65;;;2.10;99.90;;;;;;4857841;29;20226;-69
2023/02/26 18:06:16;;;;;;;3.47;3.30;;;2.10;99.90;;;;;;4859899;29;20299;-68
2023/02/26 18:08:45;;;;;;;5.68;2.97;;;2.10;99.90;;;;;;4858928;29;20219;-71
2023/02/26 18:11:18;;;;;;;3.28;3.00;;;2.00;99.90;;;;;;4856107;29;20236;-69
2023/02/26 18:13:45;;;;;;;3.95;3.65;;;2.00;99.90;;;;;;4857575;29;20261;-68
2023/02/26 18:16:17;;;;;;;8.60;2.90;;;2.00;99.90;;;;;;4856507;29;20208;-68
2023/02/26 18:18:44;;;;;;;14.63;4.82;;;1.90;99.90;;;;;;4858273;29;20285;-69
2023/02/26 18:21:11;;;;;;;2.53;2.40;;;1.90;99.90;;;;;;4858791;29;20255;-69
2023/02/26 18:23:38;;;;;;;2.17;2.05;;;1.90;99.90;;;;;;4858852;29;20653;-69
2023/02/26 18:26:05;;;;;;;1.98;1.98;;;1.90;99.90;;;;;;4856918;29;20219;-70
2023/02/26 18:28:33;;;;;;;2.50;2.30;;;1.80;99.90;;;;;;4858713;29;20684;-69